HELI59 VHHH-VHHH
Flight info
| Callsign | HELI59 |
|---|---|
| Flight time | 0h 5m |
| Altitude | 2000 |
| Route | GFS SIL CMW LT23 GRI LYM 9PN LYM GRI SIL GFS |
| Aircraft | H175/M-SDFGIYZ/LB1 |
Departure
| Time | 2026-05-06 16:30 |
|---|---|
| Airport | Hong Kong International Airport (VHHH) |
Arrival
| Time | 2026-05-06 16:35 |
|---|---|
| Airport | Hong Kong International Airport (VHHH) |
| Time | Latitude | Longitude | Altitude | Speed | Heading |
|---|---|---|---|---|---|
| 2026-05-06 16:21 | 22.29656 | 113.90810 | 28 ft | 0 kts | 341° |
| 2026-05-06 16:25 | 22.29682 | 113.90808 | 28 ft | 6 kts | 45° |
| 2026-05-06 16:25 | 22.29699 | 113.90852 | 28 ft | 6 kts | 70° |
| 2026-05-06 16:25 | 22.29723 | 113.90861 | 28 ft | 6 kts | 342° |
| 2026-05-06 16:25 | 22.29763 | 113.90847 | 28 ft | 4 kts | 357° |
| 2026-05-06 16:26 | 22.29779 | 113.90863 | 28 ft | 0 kts | 72° |
| 2026-05-06 16:28 | 22.29779 | 113.90864 | 28 ft | 1 kts | 70° |
| 2026-05-06 16:29 | 22.29808 | 113.90951 | 69 ft | 29 kts | 70° |
| 2026-05-06 16:29 | 22.29908 | 113.91255 | 243 ft | 54 kts | 73° |
| 2026-05-06 16:29 | 22.29912 | 113.91439 | 325 ft | 63 kts | 106° |
| 2026-05-06 16:30 | 22.29598 | 113.91861 | 484 ft | 79 kts | 121° |
| 2026-05-06 16:30 | 22.29412 | 113.92215 | 564 ft | 85 kts | 106° |
| 2026-05-06 16:30 | 22.29513 | 113.93053 | 783 ft | 83 kts | 77° |
| 2026-05-06 16:30 | 22.29689 | 113.93634 | 998 ft | 79 kts | 75° |
| 2026-05-06 16:31 | 22.29864 | 113.94196 | 1193 ft | 82 kts | 77° |
| 2026-05-06 16:31 | 22.30050 | 113.94818 | 1236 ft | 91 kts | 78° |
| 2026-05-06 16:31 | 22.30196 | 113.95510 | 1246 ft | 98 kts | 95° |
| 2026-05-06 16:31 | 22.29940 | 113.96211 | 1254 ft | 105 kts | 123° |
| 2026-05-06 16:32 | 22.29499 | 113.96863 | 1259 ft | 110 kts | 129° |
| 2026-05-06 16:32 | 22.28992 | 113.97492 | 1258 ft | 114 kts | 132° |
| 2026-05-06 16:32 | 22.28419 | 113.98107 | 1255 ft | 118 kts | 133° |
| 2026-05-06 16:32 | 22.27811 | 113.98722 | 1260 ft | 121 kts | 136° |
| 2026-05-06 16:33 | 22.27175 | 113.99337 | 1263 ft | 124 kts | 137° |
| 2026-05-06 16:33 | 22.26520 | 113.99954 | 1262 ft | 126 kts | 138° |
| 2026-05-06 16:33 | 22.25839 | 114.00562 | 1261 ft | 128 kts | 143° |
| 2026-05-06 16:34 | 22.24157 | 114.00424 | 1256 ft | 151 kts | 229° |
| 2026-05-06 16:34 | 22.23909 | 113.99311 | 1253 ft | 161 kts | 276° |
| 2026-05-06 16:34 | 22.24175 | 113.98192 | 1403 ft | 137 kts | 293° |
| 2026-05-06 16:34 | 22.24777 | 113.97658 | 1576 ft | 101 kts | 4° |
| 2026-05-06 16:35 | 22.25170 | 113.98024 | 1657 ft | 62 kts | 94° |
| 2026-05-06 16:35 | 22.25174 | 113.98342 | 1642 ft | 29 kts | 104° |
| 2026-05-06 16:35 | 22.25130 | 113.98511 | 1562 ft | 24 kts | 119° |
| 2026-05-06 16:35 | 22.24992 | 113.98686 | 1397 ft | 36 kts | 117° |
| 2026-05-06 16:36 | 22.24884 | 113.98973 | 1135 ft | 48 kts | 110° |
| 2026-05-06 16:36 | 22.24970 | 113.99353 | 1087 ft | 58 kts | 46° |
| 2026-05-06 16:36 | 22.25337 | 113.99325 | 1108 ft | 57 kts | 331° |
| 2026-05-06 16:36 | 22.25662 | 113.98967 | 1165 ft | 79 kts | 302° |
| 2026-05-06 16:37 | 22.25530 | 113.98546 | 1266 ft | 56 kts | 175° |
| 2026-05-06 16:37 | 22.25128 | 113.98696 | 1234 ft | 72 kts | 139° |
| 2026-05-06 16:37 | 22.24690 | 113.98964 | 1255 ft | 76 kts | 177° |
| 2026-05-06 16:37 | 22.24367 | 113.98520 | 1227 ft | 92 kts | 274° |
| 2026-05-06 16:38 | 22.24790 | 113.98056 | 1223 ft | 91 kts | 342° |
| 2026-05-06 16:38 | 22.25373 | 113.98079 | 1214 ft | 87 kts | 54° |
| 2026-05-06 16:38 | 22.25345 | 113.98673 | 1157 ft | 89 kts | 141° |
| 2026-05-06 16:38 | 22.24800 | 113.98618 | 1154 ft | 89 kts | 231° |
| 2026-05-06 16:39 | 22.24872 | 113.98009 | 1123 ft | 86 kts | 328° |
| 2026-05-06 16:39 | 22.25299 | 113.98118 | 1197 ft | 62 kts | 79° |
| 2026-05-06 16:39 | 22.25176 | 113.98474 | 1183 ft | 40 kts | 124° |
| 2026-05-06 16:39 | 22.25060 | 113.98821 | 1094 ft | 47 kts | 115° |
| 2026-05-06 16:40 | 22.24983 | 113.98979 | 904 ft | 7 kts | 275° |
| 2026-05-06 16:40 | 22.24988 | 113.98973 | 881 ft | 0 kts | 340° |
| 2026-05-06 16:41 | 22.24994 | 113.98967 | 950 ft | 5 kts | 354° |
| 2026-05-06 16:41 | 22.24968 | 113.99067 | 1177 ft | 35 kts | 132° |
| 2026-05-06 16:42 | 22.24972 | 113.99549 | 1244 ft | 98 kts | 77° |
| 2026-05-06 16:42 | 22.25331 | 114.00356 | 1220 ft | 137 kts | 69° |
| 2026-05-06 16:42 | 22.25788 | 114.01336 | 1217 ft | 153 kts | 66° |
| 2026-05-06 16:42 | 22.26290 | 114.02390 | 1214 ft | 162 kts | 64° |
| 2026-05-06 16:43 | 22.26767 | 114.03477 | 1214 ft | 159 kts | 70° |
| 2026-05-06 16:43 | 22.27113 | 114.04592 | 1213 ft | 155 kts | 76° |
| 2026-05-06 16:43 | 22.27423 | 114.05701 | 1212 ft | 153 kts | 76° |
| 2026-05-06 16:43 | 22.27712 | 114.06788 | 1212 ft | 152 kts | 77° |
| 2026-05-06 16:44 | 22.27995 | 114.07880 | 1210 ft | 150 kts | 76° |
| 2026-05-06 16:44 | 22.28275 | 114.08962 | 1210 ft | 149 kts | 76° |
| 2026-05-06 16:44 | 22.28552 | 114.10037 | 1208 ft | 148 kts | 77° |
| 2026-05-06 16:44 | 22.28823 | 114.11103 | 1210 ft | 147 kts | 77° |
| 2026-05-06 16:45 | 22.29094 | 114.12178 | 1207 ft | 146 kts | 77° |
| 2026-05-06 16:45 | 22.29355 | 114.13223 | 1209 ft | 146 kts | 77° |
| 2026-05-06 16:45 | 22.29452 | 114.14304 | 1205 ft | 145 kts | 94° |
| 2026-05-06 16:45 | 22.29226 | 114.15362 | 1105 ft | 145 kts | 106° |
| 2026-05-06 16:46 | 22.28943 | 114.16401 | 1048 ft | 144 kts | 105° |
| 2026-05-06 16:46 | 22.28735 | 114.17456 | 1025 ft | 145 kts | 92° |
| 2026-05-06 16:46 | 22.28989 | 114.18503 | 1009 ft | 149 kts | 61° |
| 2026-05-06 16:46 | 22.29610 | 114.19387 | 1006 ft | 149 kts | 62° |
| 2026-05-06 16:47 | 22.29777 | 114.20432 | 1002 ft | 148 kts | 98° |
| 2026-05-06 16:47 | 22.29437 | 114.21474 | 1002 ft | 146 kts | 112° |
| 2026-05-06 16:47 | 22.29055 | 114.22477 | 998 ft | 144 kts | 111° |
| 2026-05-06 16:47 | 22.28691 | 114.23474 | 997 ft | 141 kts | 110° |
| 2026-05-06 16:48 | 22.28308 | 114.24441 | 999 ft | 139 kts | 118° |
| 2026-05-06 16:48 | 22.27736 | 114.25291 | 984 ft | 144 kts | 130° |
| 2026-05-06 16:48 | 22.27011 | 114.26087 | 991 ft | 153 kts | 132° |
| 2026-05-06 16:48 | 22.26293 | 114.26965 | 991 ft | 160 kts | 121° |
| 2026-05-06 16:49 | 22.26073 | 114.28090 | 1010 ft | 150 kts | 94° |
| 2026-05-06 16:49 | 22.26047 | 114.29177 | 1002 ft | 142 kts | 92° |
| 2026-05-06 16:49 | 22.26039 | 114.29536 | 1002 ft | 141 kts | 92° |
| 2026-05-06 16:49 | 22.26032 | 114.29828 | 1003 ft | 141 kts | 92° |
| 2026-05-06 16:50 | 22.26007 | 114.30806 | 1000 ft | 139 kts | 92° |
| 2026-05-06 16:50 | 22.25994 | 114.31840 | 997 ft | 137 kts | 91° |
| 2026-05-06 16:50 | 22.26001 | 114.32858 | 942 ft | 131 kts | 88° |
| 2026-05-06 16:50 | 22.26111 | 114.33794 | 704 ft | 121 kts | 83° |
| 2026-05-06 16:51 | 22.26231 | 114.34638 | 577 ft | 103 kts | 83° |
| 2026-05-06 16:51 | 22.26609 | 114.35150 | 549 ft | 90 kts | 15° |
| 2026-05-06 16:51 | 22.27088 | 114.34855 | 462 ft | 82 kts | 286° |
| 2026-05-06 16:51 | 22.27146 | 114.34321 | 407 ft | 73 kts | 329° |
| 2026-05-06 16:52 | 22.27498 | 114.34457 | 422 ft | 59 kts | 85° |
| 2026-05-06 16:52 | 22.27186 | 114.34622 | 468 ft | 68 kts | 204° |
| 2026-05-06 16:52 | 22.26802 | 114.34373 | 599 ft | 62 kts | 201° |
| 2026-05-06 16:52 | 22.26488 | 114.34649 | 501 ft | 78 kts | 103° |
| 2026-05-06 16:53 | 22.26866 | 114.35149 | 356 ft | 98 kts | 39° |
| 2026-05-06 16:53 | 22.27439 | 114.35362 | 499 ft | 81 kts | 355° |
| 2026-05-06 16:53 | 22.27552 | 114.34994 | 576 ft | 39 kts | 150° |
| 2026-05-06 16:53 | 22.27222 | 114.34836 | 624 ft | 56 kts | 165° |
| 2026-05-06 16:54 | 22.26824 | 114.34809 | 702 ft | 61 kts | 166° |
| 2026-05-06 16:54 | 22.26374 | 114.34818 | 746 ft | 69 kts | 160° |
| 2026-05-06 16:54 | 22.25887 | 114.34671 | 669 ft | 90 kts | 232° |
| 2026-05-06 16:54 | 22.26006 | 114.34045 | 605 ft | 95 kts | 329° |
| 2026-05-06 16:55 | 22.26604 | 114.34103 | 569 ft | 88 kts | 36° |
| 2026-05-06 16:55 | 22.26905 | 114.34551 | 663 ft | 72 kts | 104° |
| 2026-05-06 16:55 | 22.26752 | 114.35104 | 680 ft | 78 kts | 109° |
| 2026-05-06 16:55 | 22.26688 | 114.35675 | 744 ft | 81 kts | 63° |
| 2026-05-06 16:56 | 22.27245 | 114.35779 | 711 ft | 97 kts | 332° |
| 2026-05-06 16:56 | 22.27384 | 114.35143 | 790 ft | 93 kts | 243° |
| 2026-05-06 16:56 | 22.27091 | 114.34444 | 714 ft | 107 kts | 242° |
| 2026-05-06 16:56 | 22.27070 | 114.33635 | 615 ft | 102 kts | 279° |
| 2026-05-06 16:57 | 22.26913 | 114.33264 | 225 ft | 13 kts | 40° |
| 2026-05-06 16:57 | 22.26862 | 114.33414 | 269 ft | 28 kts | 87° |
| 2026-05-06 16:57 | 22.27037 | 114.33384 | 300 ft | 47 kts | 264° |
| 2026-05-06 16:57 | 22.26887 | 114.33163 | 318 ft | 43 kts | 168° |
| 2026-05-06 16:58 | 22.26834 | 114.33538 | 347 ft | 65 kts | 86° |
| 2026-05-06 16:58 | 22.26781 | 114.34002 | 462 ft | 53 kts | 98° |
| 2026-05-06 16:58 | 22.26684 | 114.34322 | 532 ft | 37 kts | 90° |
| 2026-05-06 16:58 | 22.26650 | 114.34551 | 493 ft | 29 kts | 74° |
| 2026-05-06 16:59 | 22.26702 | 114.34744 | 421 ft | 12 kts | 92° |
| 2026-05-06 16:59 | 22.26701 | 114.34776 | 319 ft | 4 kts | 89° |
| 2026-05-06 16:59 | 22.26716 | 114.34776 | 314 ft | 3 kts | 102° |
| 2026-05-06 16:59 | 22.26717 | 114.34787 | 366 ft | 3 kts | 133° |
| 2026-05-06 17:00 | 22.26702 | 114.34790 | 295 ft | 1 kts | 214° |
| 2026-05-06 17:01 | 22.26700 | 114.34790 | 314 ft | 1 kts | 188° |
| 2026-05-06 17:01 | 22.26831 | 114.34645 | 562 ft | 65 kts | 341° |
| 2026-05-06 17:02 | 22.27083 | 114.34005 | 892 ft | 122 kts | 298° |
| 2026-05-06 17:02 | 22.27014 | 114.32931 | 957 ft | 159 kts | 255° |
| 2026-05-06 17:02 | 22.26594 | 114.31828 | 979 ft | 157 kts | 246° |
| 2026-05-06 17:02 | 22.26208 | 114.30743 | 980 ft | 152 kts | 246° |
| 2026-05-06 17:03 | 22.26025 | 114.29625 | 983 ft | 151 kts | 266° |
| 2026-05-06 17:03 | 22.26042 | 114.28502 | 983 ft | 148 kts | 267° |
| 2026-05-06 17:03 | 22.26138 | 114.27408 | 983 ft | 147 kts | 285° |
| 2026-05-06 17:03 | 22.26636 | 114.26461 | 985 ft | 146 kts | 311° |
| 2026-05-06 17:04 | 22.27276 | 114.25622 | 985 ft | 144 kts | 311° |
| 2026-05-06 17:04 | 22.27893 | 114.24778 | 982 ft | 143 kts | 308° |
| 2026-05-06 17:04 | 22.28475 | 114.23916 | 986 ft | 142 kts | 303° |
| 2026-05-06 17:04 | 22.28928 | 114.22975 | 985 ft | 141 kts | 295° |
| 2026-05-06 17:05 | 22.29327 | 114.22014 | 981 ft | 140 kts | 294° |
| 2026-05-06 17:05 | 22.29633 | 114.21025 | 983 ft | 139 kts | 279° |
| 2026-05-06 17:05 | 22.29603 | 114.19983 | 982 ft | 139 kts | 258° |
| 2026-05-06 17:05 | 22.29369 | 114.18974 | 984 ft | 139 kts | 253° |
| 2026-05-06 17:06 | 22.29114 | 114.17970 | 984 ft | 138 kts | 252° |
| 2026-05-06 17:06 | 22.29047 | 114.16938 | 987 ft | 140 kts | 279° |
| 2026-05-06 17:06 | 22.29305 | 114.15926 | 985 ft | 140 kts | 288° |
| 2026-05-06 17:06 | 22.29484 | 114.15258 | 988 ft | 140 kts | 284° |
| 2026-05-06 17:07 | 22.29588 | 114.14214 | 989 ft | 140 kts | 270° |
| 2026-05-06 17:07 | 22.29454 | 114.13175 | 987 ft | 140 kts | 256° |
| 2026-05-06 17:07 | 22.29235 | 114.12133 | 934 ft | 154 kts | 254° |
| 2026-05-06 17:07 | 22.28953 | 114.10978 | 957 ft | 163 kts | 254° |
| 2026-05-06 17:08 | 22.28653 | 114.09772 | 971 ft | 169 kts | 254° |
| 2026-05-06 17:08 | 22.28345 | 114.08530 | 976 ft | 174 kts | 255° |
| 2026-05-06 17:08 | 22.28023 | 114.07255 | 981 ft | 177 kts | 254° |
| 2026-05-06 17:08 | 22.27700 | 114.05956 | 986 ft | 181 kts | 258° |
| 2026-05-06 17:09 | 22.27758 | 114.04667 | 1058 ft | 164 kts | 277° |
| 2026-05-06 17:09 | 22.27588 | 114.03522 | 1156 ft | 151 kts | 245° |
| 2026-05-06 17:09 | 22.27247 | 114.02526 | 1524 ft | 130 kts | 248° |
| 2026-05-06 17:09 | 22.27162 | 114.01601 | 1564 ft | 123 kts | 281° |
| 2026-05-06 17:10 | 22.27594 | 114.00797 | 1571 ft | 125 kts | 307° |
| 2026-05-06 17:10 | 22.28103 | 114.00034 | 1584 ft | 126 kts | 308° |
| 2026-05-06 17:10 | 22.28636 | 113.99223 | 1585 ft | 138 kts | 305° |
| 2026-05-06 17:10 | 22.29183 | 113.98325 | 1582 ft | 148 kts | 304° |
| 2026-05-06 17:11 | 22.29724 | 113.97346 | 1585 ft | 156 kts | 301° |
| 2026-05-06 17:11 | 22.30070 | 113.96219 | 1505 ft | 161 kts | 277° |
| 2026-05-06 17:11 | 22.30036 | 113.95062 | 1129 ft | 151 kts | 260° |
| 2026-05-06 17:11 | 22.29861 | 113.93995 | 893 ft | 135 kts | 256° |
| 2026-05-06 17:12 | 22.29649 | 113.93097 | 745 ft | 113 kts | 254° |
| 2026-05-06 17:12 | 22.29483 | 113.92353 | 657 ft | 91 kts | 252° |
| 2026-05-06 17:12 | 22.29382 | 113.91757 | 611 ft | 74 kts | 257° |
| 2026-05-06 17:12 | 22.29289 | 113.91197 | 624 ft | 78 kts | 256° |
| 2026-05-06 17:13 | 22.29112 | 113.90653 | 582 ft | 71 kts | 245° |
| 2026-05-06 17:13 | 22.29231 | 113.90300 | 571 ft | 52 kts | 8° |
| 2026-05-06 17:13 | 22.29504 | 113.90349 | 297 ft | 25 kts | 20° |
| 2026-05-06 17:13 | 22.29573 | 113.90492 | 56 ft | 11 kts | 65° |
| 2026-05-06 17:14 | 22.29597 | 113.90554 | 35 ft | 3 kts | 63° |
| 2026-05-06 17:14 | 22.29603 | 113.90569 | 28 ft | 1 kts | 72° |
| 2026-05-06 17:14 | 22.29606 | 113.90577 | 28 ft | 1 kts | 69° |
| 2026-05-06 17:14 | 22.29616 | 113.90607 | 28 ft | 8 kts | 70° |
| 2026-05-06 17:15 | 22.29602 | 113.90646 | 28 ft | 7 kts | 161° |
| 2026-05-06 17:15 | 22.29589 | 113.90680 | 28 ft | 9 kts | 67° |
| 2026-05-06 17:15 | 22.29613 | 113.90753 | 28 ft | 6 kts | 63° |
| 2026-05-06 17:15 | 22.29641 | 113.90754 | 28 ft | 0 kts | 342° |